sensor_id;sensor_type;location;lat;lon;timestamp;temperature;humidity
71837;DHT22;59686;51.716;7.016;2024-01-06T00:02:10;9.30;99.10
71837;DHT22;59686;51.716;7.016;2024-01-06T00:04:36;9.30;99.10
71837;DHT22;59686;51.716;7.016;2024-01-06T00:07:02;9.30;99.10
71837;DHT22;59686;51.716;7.016;2024-01-06T00:09:39;9.30;99.10
71837;DHT22;59686;51.716;7.016;2024-01-06T00:12:05;9.30;99.10
71837;DHT22;59686;51.716;7.016;2024-01-06T00:14:33;9.30;99.10
71837;DHT22;59686;51.716;7.016;2024-01-06T00:16:59;9.30;99.20
71837;DHT22;59686;51.716;7.016;2024-01-06T00:19:25;9.30;99.10
71837;DHT22;59686;51.716;7.016;2024-01-06T00:21:57;9.30;99.20
71837;DHT22;59686;51.716;7.016;2024-01-06T00:24:22;9.30;99.20
71837;DHT22;59686;51.716;7.016;2024-01-06T00:26:48;9.30;99.20
71837;DHT22;59686;51.716;7.016;2024-01-06T00:29:14;9.30;99.20
71837;DHT22;59686;51.716;7.016;2024-01-06T00:31:39;9.30;99.20
71837;DHT22;59686;51.716;7.016;2024-01-06T00:34:05;9.30;99.20
71837;DHT22;59686;51.716;7.016;2024-01-06T00:36:31;9.30;99.20
71837;DHT22;59686;51.716;7.016;2024-01-06T00:38:57;9.30;99.20
71837;DHT22;59686;51.716;7.016;2024-01-06T00:41:22;9.30;99.20
71837;DHT22;59686;51.716;7.016;2024-01-06T00:43:48;9.30;99.20
71837;DHT22;59686;51.716;7.016;2024-01-06T00:46:14;9.30;99.20
71837;DHT22;59686;51.716;7.016;2024-01-06T00:48:39;9.30;99.20
71837;DHT22;59686;51.716;7.016;2024-01-06T00:51:05;9.30;99.20
71837;DHT22;59686;51.716;7.016;2024-01-06T00:53:31;9.30;99.20
71837;DHT22;59686;51.716;7.016;2024-01-06T00:55:56;9.30;99.20
71837;DHT22;59686;51.716;7.016;2024-01-06T00:58:37;9.30;99.10
71837;DHT22;59686;51.716;7.016;2024-01-06T01:01:03;9.30;99.10
71837;DHT22;59686;51.716;7.016;2024-01-06T01:03:29;9.30;99.20
71837;DHT22;59686;51.716;7.016;2024-01-06T01:05:54;9.30;99.20
71837;DHT22;59686;51.716;7.016;2024-01-06T01:11:27;9.30;99.20
71837;DHT22;59686;51.716;7.016;2024-01-06T01:13:52;9.30;99.10
71837;DHT22;59686;51.716;7.016;2024-01-06T01:16:18;9.30;99.10
71837;DHT22;59686;51.716;7.016;2024-01-06T01:18:44;9.30;99.10
71837;DHT22;59686;51.716;7.016;2024-01-06T01:21:10;9.30;99.10
71837;DHT22;59686;51.716;7.016;2024-01-06T01:23:35;9.30;99.10
71837;DHT22;59686;51.716;7.016;2024-01-06T01:26:02;9.30;99.10
71837;DHT22;59686;51.716;7.016;2024-01-06T01:28:27;9.30;99.00
71837;DHT22;59686;51.716;7.016;2024-01-06T01:31:02;9.30;99.10
71837;DHT22;59686;51.716;7.016;2024-01-06T01:33:28;9.30;98.90
71837;DHT22;59686;51.716;7.016;2024-01-06T01:35:53;9.30;99.00
71837;DHT22;59686;51.716;7.016;2024-01-06T01:38:19;9.30;98.90
71837;DHT22;59686;51.716;7.016;2024-01-06T01:40:50;9.20;98.80
71837;DHT22;59686;51.716;7.016;2024-01-06T01:43:19;9.30;98.90
71837;DHT22;59686;51.716;7.016;2024-01-06T01:45:48;9.30;98.90
71837;DHT22;59686;51.716;7.016;2024-01-06T01:48:22;9.30;98.80
71837;DHT22;59686;51.716;7.016;2024-01-06T01:50:49;9.30;98.80
71837;DHT22;59686;51.716;7.016;2024-01-06T01:53:28;9.30;98.70
71837;DHT22;59686;51.716;7.016;2024-01-06T01:55:54;9.30;98.80
71837;DHT22;59686;51.716;7.016;2024-01-06T01:58:20;9.30;98.80
71837;DHT22;59686;51.716;7.016;2024-01-06T02:00:46;9.30;98.70
71837;DHT22;59686;51.716;7.016;2024-01-06T02:03:13;9.30;98.60
71837;DHT22;59686;51.716;7.016;2024-01-06T02:05:45;9.30;98.70
71837;DHT22;59686;51.716;7.016;2024-01-06T02:08:11;9.30;98.80
71837;DHT22;59686;51.716;7.016;2024-01-06T02:10:37;9.30;98.80
71837;DHT22;59686;51.716;7.016;2024-01-06T02:13:12;9.30;98.80
71837;DHT22;59686;51.716;7.016;2024-01-06T02:15:38;9.30;98.80
71837;DHT22;59686;51.716;7.016;2024-01-06T02:18:04;9.30;98.80
71837;DHT22;59686;51.716;7.016;2024-01-06T02:20:30;9.30;98.70
71837;DHT22;59686;51.716;7.016;2024-01-06T02:22:56;9.30;98.70
71837;DHT22;59686;51.716;7.016;2024-01-06T02:25:24;9.30;98.70
71837;DHT22;59686;51.716;7.016;2024-01-06T02:27:50;9.20;98.70
71837;DHT22;59686;51.716;7.016;2024-01-06T02:30:15;9.20;98.60
71837;DHT22;59686;51.716;7.016;2024-01-06T02:32:41;9.30;98.70
71837;DHT22;59686;51.716;7.016;2024-01-06T02:35:07;9.20;98.60
71837;DHT22;59686;51.716;7.016;2024-01-06T02:37:33;9.20;98.70
71837;DHT22;59686;51.716;7.016;2024-01-06T02:39:58;9.20;98.70
71837;DHT22;59686;51.716;7.016;2024-01-06T02:42:24;9.30;98.70
71837;DHT22;59686;51.716;7.016;2024-01-06T02:44:51;9.30;98.60
71837;DHT22;59686;51.716;7.016;2024-01-06T02:47:18;9.20;98.50
71837;DHT22;59686;51.716;7.016;2024-01-06T02:49:44;9.30;98.60
71837;DHT22;59686;51.716;7.016;2024-01-06T02:52:10;9.30;98.50
71837;DHT22;59686;51.716;7.016;2024-01-06T02:54:35;9.20;98.60
71837;DHT22;59686;51.716;7.016;2024-01-06T02:57:01;9.20;98.60
71837;DHT22;59686;51.716;7.016;2024-01-06T02:59:27;9.20;98.50
71837;DHT22;59686;51.716;7.016;2024-01-06T03:01:52;9.20;98.60
71837;DHT22;59686;51.716;7.016;2024-01-06T03:04:18;9.20;98.60
71837;DHT22;59686;51.716;7.016;2024-01-06T03:06:44;9.20;98.60
71837;DHT22;59686;51.716;7.016;2024-01-06T03:09:17;9.30;98.60
71837;DHT22;59686;51.716;7.016;2024-01-06T03:11:45;9.20;98.50
71837;DHT22;59686;51.716;7.016;2024-01-06T03:14:10;9.30;98.50
71837;DHT22;59686;51.716;7.016;2024-01-06T03:16:36;9.40;98.60
71837;DHT22;59686;51.716;7.016;2024-01-06T03:19:03;9.20;98.50
71837;DHT22;59686;51.716;7.016;2024-01-06T03:21:28;9.20;98.50
71837;DHT22;59686;51.716;7.016;2024-01-06T03:24:27;9.20;98.40
71837;DHT22;59686;51.716;7.016;2024-01-06T03:26:52;9.20;98.40
71837;DHT22;59686;51.716;7.016;2024-01-06T03:29:18;9.20;98.40
71837;DHT22;59686;51.716;7.016;2024-01-06T03:31:44;9.20;98.30
71837;DHT22;59686;51.716;7.016;2024-01-06T03:34:12;9.20;98.30
71837;DHT22;59686;51.716;7.016;2024-01-06T03:36:38;9.30;98.20
71837;DHT22;59686;51.716;7.016;2024-01-06T03:39:04;9.20;98.10
71837;DHT22;59686;51.716;7.016;2024-01-06T03:41:30;9.20;98.00
71837;DHT22;59686;51.716;7.016;2024-01-06T03:43:56;9.20;98.10
71837;DHT22;59686;51.716;7.016;2024-01-06T03:46:22;9.20;98.10
71837;DHT22;59686;51.716;7.016;2024-01-06T03:48:48;9.20;98.10
71837;DHT22;59686;51.716;7.016;2024-01-06T03:51:14;9.20;98.10
71837;DHT22;59686;51.716;7.016;2024-01-06T03:53:40;9.20;98.20
71837;DHT22;59686;51.716;7.016;2024-01-06T03:56:06;9.20;98.10
71837;DHT22;59686;51.716;7.016;2024-01-06T03:58:32;9.30;98.00
71837;DHT22;59686;51.716;7.016;2024-01-06T04:00:58;9.20;98.10
71837;DHT22;59686;51.716;7.016;2024-01-06T04:03:23;9.20;98.10
71837;DHT22;59686;51.716;7.016;2024-01-06T04:05:49;9.10;98.20
71837;DHT22;59686;51.716;7.016;2024-01-06T04:08:15;9.20;98.20
71837;DHT22;59686;51.716;7.016;2024-01-06T04:10:40;9.20;98.20
71837;DHT22;59686;51.716;7.016;2024-01-06T04:13:07;9.20;98.20
71837;DHT22;59686;51.716;7.016;2024-01-06T04:15:33;9.20;98.20
71837;DHT22;59686;51.716;7.016;2024-01-06T04:18:02;9.20;98.20
71837;DHT22;59686;51.716;7.016;2024-01-06T04:20:29;9.20;98.20
71837;DHT22;59686;51.716;7.016;2024-01-06T04:22:54;9.20;98.20
71837;DHT22;59686;51.716;7.016;2024-01-06T04:25:20;9.20;98.20
71837;DHT22;59686;51.716;7.016;2024-01-06T04:27:46;9.10;98.20
71837;DHT22;59686;51.716;7.016;2024-01-06T04:30:14;9.10;98.10
71837;DHT22;59686;51.716;7.016;2024-01-06T04:32:40;9.10;98.20
71837;DHT22;59686;51.716;7.016;2024-01-06T04:35:06;9.10;98.20
71837;DHT22;59686;51.716;7.016;2024-01-06T04:37:32;9.10;98.20
71837;DHT22;59686;51.716;7.016;2024-01-06T04:39:58;9.10;98.10
71837;DHT22;59686;51.716;7.016;2024-01-06T04:42:24;9.10;98.10
71837;DHT22;59686;51.716;7.016;2024-01-06T04:44:50;9.20;98.10
71837;DHT22;59686;51.716;7.016;2024-01-06T04:47:16;9.10;98.20
71837;DHT22;59686;51.716;7.016;2024-01-06T04:49:42;9.10;98.20
71837;DHT22;59686;51.716;7.016;2024-01-06T04:52:07;9.10;98.20
71837;DHT22;59686;51.716;7.016;2024-01-06T04:54:40;9.10;98.20
71837;DHT22;59686;51.716;7.016;2024-01-06T04:57:06;9.10;98.20
71837;DHT22;59686;51.716;7.016;2024-01-06T04:59:31;9.10;98.20
71837;DHT22;59686;51.716;7.016;2024-01-06T05:01:57;9.10;98.20
71837;DHT22;59686;51.716;7.016;2024-01-06T05:04:24;9.10;98.20
71837;DHT22;59686;51.716;7.016;2024-01-06T05:06:51;9.10;98.20
71837;DHT22;59686;51.716;7.016;2024-01-06T05:09:17;9.10;98.20
71837;DHT22;59686;51.716;7.016;2024-01-06T05:11:46;9.20;98.30
71837;DHT22;59686;51.716;7.016;2024-01-06T05:14:12;9.10;98.30
71837;DHT22;59686;51.716;7.016;2024-01-06T05:16:38;9.10;98.20
71837;DHT22;59686;51.716;7.016;2024-01-06T05:19:03;9.10;98.20
71837;DHT22;59686;51.716;7.016;2024-01-06T05:21:32;9.10;98.00
71837;DHT22;59686;51.716;7.016;2024-01-06T05:23:58;9.10;98.20
71837;DHT22;59686;51.716;7.016;2024-01-06T05:26:43;9.10;98.20
71837;DHT22;59686;51.716;7.016;2024-01-06T05:29:08;9.10;98.20
71837;DHT22;59686;51.716;7.016;2024-01-06T05:31:34;9.10;98.10
71837;DHT22;59686;51.716;7.016;2024-01-06T05:33:59;9.10;98.10
71837;DHT22;59686;51.716;7.016;2024-01-06T05:36:25;9.10;98.10
71837;DHT22;59686;51.716;7.016;2024-01-06T05:38:51;9.10;98.10
71837;DHT22;59686;51.716;7.016;2024-01-06T05:41:16;9.10;98.10
71837;DHT22;59686;51.716;7.016;2024-01-06T05:43:42;9.10;98.20
71837;DHT22;59686;51.716;7.016;2024-01-06T05:46:08;9.10;98.10
71837;DHT22;59686;51.716;7.016;2024-01-06T05:48:36;9.10;98.20
71837;DHT22;59686;51.716;7.016;2024-01-06T05:51:04;9.10;98.10
71837;DHT22;59686;51.716;7.016;2024-01-06T05:53:31;9.10;98.10
71837;DHT22;59686;51.716;7.016;2024-01-06T05:55:57;9.10;98.10
71837;DHT22;59686;51.716;7.016;2024-01-06T05:58:22;9.10;98.00
71837;DHT22;59686;51.716;7.016;2024-01-06T06:00:48;9.10;97.90
71837;DHT22;59686;51.716;7.016;2024-01-06T06:03:14;9.10;98.00
71837;DHT22;59686;51.716;7.016;2024-01-06T06:05:40;9.10;98.00
71837;DHT22;59686;51.716;7.016;2024-01-06T06:08:05;9.10;98.00
71837;DHT22;59686;51.716;7.016;2024-01-06T06:10:31;9.10;98.00
71837;DHT22;59686;51.716;7.016;2024-01-06T06:13:07;9.00;98.10
71837;DHT22;59686;51.716;7.016;2024-01-06T06:15:35;9.10;98.10
71837;DHT22;59686;51.716;7.016;2024-01-06T06:18:00;9.10;98.10
71837;DHT22;59686;51.716;7.016;2024-01-06T06:20:26;9.10;98.10
71837;DHT22;59686;51.716;7.016;2024-01-06T06:22:52;9.10;97.90
71837;DHT22;59686;51.716;7.016;2024-01-06T06:25:17;9.10;98.00
71837;DHT22;59686;51.716;7.016;2024-01-06T06:27:43;9.10;98.00
71837;DHT22;59686;51.716;7.016;2024-01-06T06:30:09;9.00;98.00
71837;DHT22;59686;51.716;7.016;2024-01-06T06:32:35;9.10;98.00
71837;DHT22;59686;51.716;7.016;2024-01-06T06:35:00;9.10;98.00
71837;DHT22;59686;51.716;7.016;2024-01-06T06:37:27;9.00;97.90
71837;DHT22;59686;51.716;7.016;2024-01-06T06:39:52;8.90;97.90
71837;DHT22;59686;51.716;7.016;2024-01-06T06:42:18;8.90;97.90
71837;DHT22;59686;51.716;7.016;2024-01-06T06:44:44;9.00;98.00
71837;DHT22;59686;51.716;7.016;2024-01-06T06:47:09;9.00;98.00
71837;DHT22;59686;51.716;7.016;2024-01-06T06:49:35;9.00;98.10
71837;DHT22;59686;51.716;7.016;2024-01-06T06:52:01;9.00;98.00
71837;DHT22;59686;51.716;7.016;2024-01-06T06:54:28;9.00;98.00
71837;DHT22;59686;51.716;7.016;2024-01-06T06:56:54;8.90;97.90
71837;DHT22;59686;51.716;7.016;2024-01-06T06:59:19;9.00;97.90
71837;DHT22;59686;51.716;7.016;2024-01-06T07:01:45;9.00;97.90
71837;DHT22;59686;51.716;7.016;2024-01-06T07:04:11;9.00;97.90
71837;DHT22;59686;51.716;7.016;2024-01-06T07:06:37;9.00;98.30
71837;DHT22;59686;51.716;7.016;2024-01-06T07:09:08;9.00;98.00
71837;DHT22;59686;51.716;7.016;2024-01-06T07:11:33;9.00;97.90
71837;DHT22;59686;51.716;7.016;2024-01-06T07:13:59;8.90;97.90
71837;DHT22;59686;51.716;7.016;2024-01-06T07:16:25;9.10;98.00
71837;DHT22;59686;51.716;7.016;2024-01-06T07:18:50;9.00;98.00
71837;DHT22;59686;51.716;7.016;2024-01-06T07:21:30;9.00;97.80
71837;DHT22;59686;51.716;7.016;2024-01-06T07:23:56;9.00;97.90
71837;DHT22;59686;51.716;7.016;2024-01-06T07:26:22;9.00;97.90
71837;DHT22;59686;51.716;7.016;2024-01-06T07:28:48;9.00;97.90
71837;DHT22;59686;51.716;7.016;2024-01-06T07:31:17;9.00;97.90
71837;DHT22;59686;51.716;7.016;2024-01-06T07:33:43;9.00;97.90
71837;DHT22;59686;51.716;7.016;2024-01-06T07:36:09;9.00;97.90
71837;DHT22;59686;51.716;7.016;2024-01-06T07:38:34;8.90;97.90
71837;DHT22;59686;51.716;7.016;2024-01-06T07:41:00;9.00;97.90
71837;DHT22;59686;51.716;7.016;2024-01-06T07:43:33;9.00;97.90
71837;DHT22;59686;51.716;7.016;2024-01-06T07:45:59;9.00;97.90
71837;DHT22;59686;51.716;7.016;2024-01-06T07:48:24;8.90;97.60
71837;DHT22;59686;51.716;7.016;2024-01-06T07:50:50;9.00;97.80
71837;DHT22;59686;51.716;7.016;2024-01-06T07:53:16;8.90;97.80
71837;DHT22;59686;51.716;7.016;2024-01-06T07:55:42;8.80;97.80
71837;DHT22;59686;51.716;7.016;2024-01-06T07:58:18;8.90;97.80
71837;DHT22;59686;51.716;7.016;2024-01-06T08:00:44;8.90;97.70
71837;DHT22;59686;51.716;7.016;2024-01-06T08:03:10;8.90;97.90
71837;DHT22;59686;51.716;7.016;2024-01-06T08:05:37;9.00;97.80
71837;DHT22;59686;51.716;7.016;2024-01-06T08:08:03;9.10;97.90
71837;DHT22;59686;51.716;7.016;2024-01-06T08:10:51;8.90;97.70
71837;DHT22;59686;51.716;7.016;2024-01-06T08:13:17;8.90;97.80
71837;DHT22;59686;51.716;7.016;2024-01-06T08:15:43;8.90;97.80
71837;DHT22;59686;51.716;7.016;2024-01-06T08:18:08;8.90;97.80
71837;DHT22;59686;51.716;7.016;2024-01-06T08:20:34;8.90;97.80
71837;DHT22;59686;51.716;7.016;2024-01-06T08:23:00;8.90;98.10
71837;DHT22;59686;51.716;7.016;2024-01-06T08:25:27;8.90;97.70
71837;DHT22;59686;51.716;7.016;2024-01-06T08:27:53;8.90;97.80
71837;DHT22;59686;51.716;7.016;2024-01-06T08:30:19;8.90;97.70
71837;DHT22;59686;51.716;7.016;2024-01-06T08:32:45;8.90;97.80
71837;DHT22;59686;51.716;7.016;2024-01-06T08:35:11;9.00;97.90
71837;DHT22;59686;51.716;7.016;2024-01-06T08:37:36;8.90;97.80
71837;DHT22;59686;51.716;7.016;2024-01-06T08:40:02;8.90;97.80
71837;DHT22;59686;51.716;7.016;2024-01-06T08:42:30;8.90;97.60
71837;DHT22;59686;51.716;7.016;2024-01-06T08:44:55;8.90;97.80
71837;DHT22;59686;51.716;7.016;2024-01-06T08:47:21;9.00;97.70
71837;DHT22;59686;51.716;7.016;2024-01-06T08:49:49;8.90;97.70
71837;DHT22;59686;51.716;7.016;2024-01-06T08:52:16;8.90;97.70
71837;DHT22;59686;51.716;7.016;2024-01-06T08:54:43;8.90;97.70
71837;DHT22;59686;51.716;7.016;2024-01-06T08:57:10;8.90;97.70
71837;DHT22;59686;51.716;7.016;2024-01-06T08:59:58;8.90;97.70
71837;DHT22;59686;51.716;7.016;2024-01-06T09:02:24;8.90;97.60
71837;DHT22;59686;51.716;7.016;2024-01-06T09:04:57;8.90;97.60
71837;DHT22;59686;51.716;7.016;2024-01-06T09:07:22;8.90;97.70
71837;DHT22;59686;51.716;7.016;2024-01-06T09:09:48;8.90;97.60
71837;DHT22;59686;51.716;7.016;2024-01-06T09:12:14;8.90;97.60
71837;DHT22;59686;51.716;7.016;2024-01-06T09:14:39;8.90;97.70
71837;DHT22;59686;51.716;7.016;2024-01-06T09:17:10;8.80;97.60
71837;DHT22;59686;51.716;7.016;2024-01-06T09:19:36;8.80;97.50
71837;DHT22;59686;51.716;7.016;2024-01-06T09:22:01;8.80;97.60
71837;DHT22;59686;51.716;7.016;2024-01-06T09:24:27;8.80;97.50
71837;DHT22;59686;51.716;7.016;2024-01-06T09:26:53;8.80;97.50
71837;DHT22;59686;51.716;7.016;2024-01-06T09:29:19;8.80;97.50
71837;DHT22;59686;51.716;7.016;2024-01-06T09:31:44;8.80;97.40
71837;DHT22;59686;51.716;7.016;2024-01-06T09:34:10;8.80;97.50
71837;DHT22;59686;51.716;7.016;2024-01-06T09:36:38;8.80;97.50
71837;DHT22;59686;51.716;7.016;2024-01-06T09:39:09;8.80;97.60
71837;DHT22;59686;51.716;7.016;2024-01-06T09:41:35;8.80;97.50
71837;DHT22;59686;51.716;7.016;2024-01-06T09:44:18;8.80;97.50
71837;DHT22;59686;51.716;7.016;2024-01-06T09:46:47;8.80;97.50
71837;DHT22;59686;51.716;7.016;2024-01-06T09:49:23;8.80;97.50
71837;DHT22;59686;51.716;7.016;2024-01-06T09:54:54;8.80;97.50
71837;DHT22;59686;51.716;7.016;2024-01-06T09:57:21;8.80;97.50
71837;DHT22;59686;51.716;7.016;2024-01-06T09:59:47;8.70;97.50
71837;DHT22;59686;51.716;7.016;2024-01-06T10:02:18;8.80;97.40
71837;DHT22;59686;51.716;7.016;2024-01-06T10:04:44;8.80;97.40
71837;DHT22;59686;51.716;7.016;2024-01-06T10:07:11;8.80;97.50
71837;DHT22;59686;51.716;7.016;2024-01-06T10:09:38;8.80;97.40
71837;DHT22;59686;51.716;7.016;2024-01-06T10:12:03;8.80;97.50
71837;DHT22;59686;51.716;7.016;2024-01-06T10:14:37;8.80;97.50
71837;DHT22;59686;51.716;7.016;2024-01-06T10:17:10;8.80;97.50
71837;DHT22;59686;51.716;7.016;2024-01-06T10:19:36;8.80;97.30
71837;DHT22;59686;51.716;7.016;2024-01-06T10:22:04;8.70;97.30
71837;DHT22;59686;51.716;7.016;2024-01-06T10:24:30;8.70;97.40
71837;DHT22;59686;51.716;7.016;2024-01-06T10:26:57;8.70;97.30
71837;DHT22;59686;51.716;7.016;2024-01-06T10:29:25;8.70;97.40
71837;DHT22;59686;51.716;7.016;2024-01-06T10:31:51;8.70;97.40
71837;DHT22;59686;51.716;7.016;2024-01-06T10:34:17;8.60;97.40
71837;DHT22;59686;51.716;7.016;2024-01-06T10:36:44;8.70;97.40
71837;DHT22;59686;51.716;7.016;2024-01-06T10:39:09;8.70;97.40
71837;DHT22;59686;51.716;7.016;2024-01-06T10:41:39;8.80;97.40
71837;DHT22;59686;51.716;7.016;2024-01-06T10:44:08;8.70;97.40
71837;DHT22;59686;51.716;7.016;2024-01-06T10:46:34;8.70;97.40
71837;DHT22;59686;51.716;7.016;2024-01-06T10:49:02;8.70;97.40
71837;DHT22;59686;51.716;7.016;2024-01-06T10:51:32;8.70;97.40
71837;DHT22;59686;51.716;7.016;2024-01-06T10:54:01;8.70;97.40
71837;DHT22;59686;51.716;7.016;2024-01-06T10:56:30;8.70;97.40
71837;DHT22;59686;51.716;7.016;2024-01-06T10:59:03;8.80;97.40
71837;DHT22;59686;51.716;7.016;2024-01-06T11:01:29;8.60;97.30
71837;DHT22;59686;51.716;7.016;2024-01-06T11:03:55;8.70;97.40
71837;DHT22;59686;51.716;7.016;2024-01-06T11:06:21;8.70;97.30
71837;DHT22;59686;51.716;7.016;2024-01-06T11:09:16;8.80;97.30
71837;DHT22;59686;51.716;7.016;2024-01-06T11:11:51;8.70;97.10
71837;DHT22;59686;51.716;7.016;2024-01-06T11:16:48;8.70;97.20
71837;DHT22;59686;51.716;7.016;2024-01-06T11:22:20;8.70;97.20
71837;DHT22;59686;51.716;7.016;2024-01-06T11:25:06;8.70;97.30
71837;DHT22;59686;51.716;7.016;2024-01-06T11:27:33;8.70;97.20
71837;DHT22;59686;51.716;7.016;2024-01-06T11:30:03;8.70;97.20
71837;DHT22;59686;51.716;7.016;2024-01-06T11:32:43;8.70;97.30
71837;DHT22;59686;51.716;7.016;2024-01-06T11:35:15;8.70;97.20
71837;DHT22;59686;51.716;7.016;2024-01-06T11:42:57;8.70;97.10
71837;DHT22;59686;51.716;7.016;2024-01-06T11:45:24;8.70;97.20
71837;DHT22;59686;51.716;7.016;2024-01-06T11:47:55;8.70;97.10
71837;DHT22;59686;51.716;7.016;2024-01-06T11:50:40;8.60;97.00
71837;DHT22;59686;51.716;7.016;2024-01-06T11:53:08;8.70;97.10
71837;DHT22;59686;51.716;7.016;2024-01-06T11:55:35;8.60;97.10
71837;DHT22;59686;51.716;7.016;2024-01-06T11:58:03;8.70;97.10
71837;DHT22;59686;51.716;7.016;2024-01-06T12:00:34;8.60;97.10
71837;DHT22;59686;51.716;7.016;2024-01-06T12:03:01;8.60;97.10
71837;DHT22;59686;51.716;7.016;2024-01-06T12:05:28;8.60;97.10
71837;DHT22;59686;51.716;7.016;2024-01-06T12:08:03;8.60;97.00
71837;DHT22;59686;51.716;7.016;2024-01-06T12:10:32;8.60;97.00
71837;DHT22;59686;51.716;7.016;2024-01-06T12:15:30;8.60;96.90
71837;DHT22;59686;51.716;7.016;2024-01-06T12:17:57;8.60;96.90
71837;DHT22;59686;51.716;7.016;2024-01-06T12:20:26;8.60;96.90
71837;DHT22;59686;51.716;7.016;2024-01-06T12:22:56;8.60;97.10
71837;DHT22;59686;51.716;7.016;2024-01-06T12:25:28;8.60;97.00
71837;DHT22;59686;51.716;7.016;2024-01-06T12:28:05;8.60;96.90
71837;DHT22;59686;51.716;7.016;2024-01-06T12:30:33;8.60;97.00
71837;DHT22;59686;51.716;7.016;2024-01-06T12:33:12;8.60;97.00
71837;DHT22;59686;51.716;7.016;2024-01-06T12:35:39;8.60;97.00
71837;DHT22;59686;51.716;7.016;2024-01-06T12:38:11;8.60;97.00
71837;DHT22;59686;51.716;7.016;2024-01-06T12:40:38;8.70;96.90
71837;DHT22;59686;51.716;7.016;2024-01-06T12:43:09;8.60;96.90
71837;DHT22;59686;51.716;7.016;2024-01-06T12:45:42;8.50;96.80
71837;DHT22;59686;51.716;7.016;2024-01-06T12:48:08;8.60;97.00
71837;DHT22;59686;51.716;7.016;2024-01-06T12:50:33;8.60;97.00
71837;DHT22;59686;51.716;7.016;2024-01-06T12:52:59;8.60;97.00
71837;DHT22;59686;51.716;7.016;2024-01-06T12:55:25;8.60;96.90
71837;DHT22;59686;51.716;7.016;2024-01-06T12:57:50;8.60;96.90
71837;DHT22;59686;51.716;7.016;2024-01-06T13:00:16;8.60;97.00
71837;DHT22;59686;51.716;7.016;2024-01-06T13:02:42;8.60;97.00
71837;DHT22;59686;51.716;7.016;2024-01-06T13:05:08;8.60;96.90
71837;DHT22;59686;51.716;7.016;2024-01-06T13:07:34;8.60;96.90
71837;DHT22;59686;51.716;7.016;2024-01-06T13:10:00;8.50;96.80
71837;DHT22;59686;51.716;7.016;2024-01-06T13:12:26;8.50;96.90
71837;DHT22;59686;51.716;7.016;2024-01-06T13:14:54;8.40;96.90
71837;DHT22;59686;51.716;7.016;2024-01-06T13:17:20;8.60;96.90
71837;DHT22;59686;51.716;7.016;2024-01-06T13:19:53;8.50;96.90
71837;DHT22;59686;51.716;7.016;2024-01-06T13:22:19;8.50;96.90
71837;DHT22;59686;51.716;7.016;2024-01-06T13:24:47;8.50;97.00
71837;DHT22;59686;51.716;7.016;2024-01-06T13:27:13;8.50;96.90
71837;DHT22;59686;51.716;7.016;2024-01-06T13:29:40;8.50;96.90
71837;DHT22;59686;51.716;7.016;2024-01-06T13:32:06;8.50;96.90
71837;DHT22;59686;51.716;7.016;2024-01-06T13:34:32;8.50;96.90
71837;DHT22;59686;51.716;7.016;2024-01-06T13:36:58;8.50;96.80
71837;DHT22;59686;51.716;7.016;2024-01-06T13:39:24;8.50;96.80
71837;DHT22;59686;51.716;7.016;2024-01-06T13:41:49;8.50;96.80
71837;DHT22;59686;51.716;7.016;2024-01-06T13:44:15;8.50;96.80
71837;DHT22;59686;51.716;7.016;2024-01-06T13:46:41;8.50;96.70
71837;DHT22;59686;51.716;7.016;2024-01-06T13:49:13;8.30;95.20
71837;DHT22;59686;51.716;7.016;2024-01-06T13:51:42;8.00;95.00
71837;DHT22;59686;51.716;7.016;2024-01-06T13:54:09;7.90;94.80
71837;DHT22;59686;51.716;7.016;2024-01-06T13:56:35;7.80;94.90
71837;DHT22;59686;51.716;7.016;2024-01-06T13:59:01;7.70;95.10
71837;DHT22;59686;51.716;7.016;2024-01-06T14:01:32;7.60;95.00
71837;DHT22;59686;51.716;7.016;2024-01-06T14:03:58;7.60;95.20
71837;DHT22;59686;51.716;7.016;2024-01-06T14:06:25;7.50;95.20
71837;DHT22;59686;51.716;7.016;2024-01-06T14:08:58;7.40;95.10
71837;DHT22;59686;51.716;7.016;2024-01-06T14:11:25;7.40;95.20
71837;DHT22;59686;51.716;7.016;2024-01-06T14:13:52;7.40;95.40
71837;DHT22;59686;51.716;7.016;2024-01-06T14:16:20;7.40;95.20
71837;DHT22;59686;51.716;7.016;2024-01-06T14:18:46;7.30;95.30
71837;DHT22;59686;51.716;7.016;2024-01-06T14:21:12;7.20;95.50
71837;DHT22;59686;51.716;7.016;2024-01-06T14:23:43;7.10;95.70
71837;DHT22;59686;51.716;7.016;2024-01-06T14:26:09;7.10;95.70
71837;DHT22;59686;51.716;7.016;2024-01-06T14:28:35;6.90;95.70
71837;DHT22;59686;51.716;7.016;2024-01-06T14:31:01;7.10;95.50
71837;DHT22;59686;51.716;7.016;2024-01-06T14:33:27;7.00;95.80
71837;DHT22;59686;51.716;7.016;2024-01-06T14:35:53;7.00;95.50
71837;DHT22;59686;51.716;7.016;2024-01-06T14:38:19;7.00;95.60
71837;DHT22;59686;51.716;7.016;2024-01-06T14:40:45;6.90;95.60
71837;DHT22;59686;51.716;7.016;2024-01-06T14:43:10;7.00;95.50
71837;DHT22;59686;51.716;7.016;2024-01-06T14:45:36;6.90;95.70
71837;DHT22;59686;51.716;7.016;2024-01-06T14:48:02;6.90;95.60
71837;DHT22;59686;51.716;7.016;2024-01-06T14:50:30;6.90;95.30
71837;DHT22;59686;51.716;7.016;2024-01-06T14:52:56;6.90;95.40
71837;DHT22;59686;51.716;7.016;2024-01-06T14:55:21;6.90;95.50
71837;DHT22;59686;51.716;7.016;2024-01-06T14:57:47;6.90;95.60
71837;DHT22;59686;51.716;7.016;2024-01-06T15:00:16;6.90;95.40
71837;DHT22;59686;51.716;7.016;2024-01-06T15:02:42;6.90;95.70
71837;DHT22;59686;51.716;7.016;2024-01-06T15:05:11;7.00;95.60
71837;DHT22;59686;51.716;7.016;2024-01-06T15:07:37;6.80;95.70
71837;DHT22;59686;51.716;7.016;2024-01-06T15:10:03;6.80;95.80
71837;DHT22;59686;51.716;7.016;2024-01-06T15:12:29;6.80;95.90
71837;DHT22;59686;51.716;7.016;2024-01-06T15:14:55;6.80;95.70
71837;DHT22;59686;51.716;7.016;2024-01-06T15:17:21;6.80;95.60
71837;DHT22;59686;51.716;7.016;2024-01-06T15:19:47;6.80;95.60
71837;DHT22;59686;51.716;7.016;2024-01-06T15:22:13;6.80;95.60
71837;DHT22;59686;51.716;7.016;2024-01-06T15:24:39;6.80;95.60
71837;DHT22;59686;51.716;7.016;2024-01-06T15:27:05;6.80;95.70
71837;DHT22;59686;51.716;7.016;2024-01-06T15:29:30;6.90;95.70
71837;DHT22;59686;51.716;7.016;2024-01-06T15:31:56;7.10;95.60
71837;DHT22;59686;51.716;7.016;2024-01-06T15:34:25;7.30;95.60
71837;DHT22;59686;51.716;7.016;2024-01-06T15:36:51;7.40;95.50
71837;DHT22;59686;51.716;7.016;2024-01-06T15:39:17;7.50;95.50
71837;DHT22;59686;51.716;7.016;2024-01-06T15:41:42;7.50;95.50
71837;DHT22;59686;51.716;7.016;2024-01-06T15:44:08;7.60;95.60
71837;DHT22;59686;51.716;7.016;2024-01-06T15:46:34;7.60;95.60
71837;DHT22;59686;51.716;7.016;2024-01-06T15:49:00;7.60;95.60
71837;DHT22;59686;51.716;7.016;2024-01-06T15:51:26;7.70;95.60
71837;DHT22;59686;51.716;7.016;2024-01-06T15:53:51;7.70;95.60
71837;DHT22;59686;51.716;7.016;2024-01-06T15:56:17;7.80;95.70
71837;DHT22;59686;51.716;7.016;2024-01-06T15:58:43;7.70;95.70
71837;DHT22;59686;51.716;7.016;2024-01-06T16:01:08;7.70;95.80
71837;DHT22;59686;51.716;7.016;2024-01-06T16:03:34;7.70;95.80
71837;DHT22;59686;51.716;7.016;2024-01-06T16:06:00;7.80;95.80